Portada
METAR-TAF:

METAR-TAF

Aeroports :

Fairfield Municipal Airport

Fairfield, Illinois, Estats Units d'Amèrica

latitud: 38-22-43N, longitud: 088-24-46W, altitud: 133 m

Observació

L'informe es va fer fa 22 minuts, a les 07:35 UTC
Vent calma
Temperatura 25°C
Humitat 83%
Pressió 1015 hPa
Visibilitat: 16.1 km
Cel clar

METAR: KFWC 170735Z AUTO 00000KT 10SM CLR 25/22 A2997 RMK AO2 T02510216

Hora: 02:57 (07:57 UTC)


TAF: manca

Observacions i pronòstics meteorològics de més de 4000 aeroports (METAR i TAF).

Les estacions disponibles són els punts grocs i vermells al mapa.

Posi el ratolí al punt desitjat per veure el nom de l'estació.

Feu clic per veure les observacions i els pronòstics meteorològics.

Per canviar el mapa: feu clic els botons verds amb una creu de color negre per apropar; al botó verd amb un guió per allunyar la imatge; o en les fletxes verdes per a mapes adjacents.


METAR-TAF: